Airfield :
LOGIN :

Register | Disclaimer

   EN    FR    IT 

 










Legend :    VFR   Marginal VFR   IFR   Intensive IFR   Very Intensive IFR
Visi :
Ceiling :
>= 8 km
>= 3000ft
5 to 8 km
1000 to 3000 ft
1500m to 5 km
500 to 1000 ft
800 to 1500m
200 to 500 ft
< 800m
< 200 ft
Symbols :   Thunderstorms  Fog  Heavy snow  Heavy precipitations  Wind > 20 kt
SIGMETs :     Misc.  Thunderstorms  Icing  Turbulence  Mountain Waves  Volcanic Ashes







- Airport Elevation : 5600 ft
- IATA code : SMV


LSZS - Samedan

CURRENT METAR :
  • 210920Z 00000KT 9999 FEW006 BKN048 12/08 Q1017 RMK H

EXPIRED METARs :
  • 210850Z VRB01KT 9999 FEW006 BKN048 11/08 Q1017 RMK G
  • 210820Z VRB01KT 9999 VCSH FEW006 BKN048 11/08 Q1017 RMK F
  • 210750Z 18004KT 9999 VCSH FEW006 BKN048 10/08 Q1018 RMK E
  • 210720Z VRB02KT 9999 FEW006 BKN048 10/08 Q1018 RMK D
  • 210650Z VRB01KT 9999 FEW006 BKN060 10/08 Q1018 RMK C

TAF TAF LSZS
Valid from the 21 at 09:00 until the 21 at 18:00 UTC


210825Z 2109/2118 VRB03KT 9999 FEW010 SCT050 TX17/2112Z
TEMPO 2109/2118 22012KT SHRA SCT030TCU
PROB40
TEMPO 2110/2118 24015G25KT 4000 TSRA SCT030CB
ATIS : +41 81 834 93 24
No reported NOTAMs for that airfield.



MET'MAP, your aeronautical weather chart ! - Copyright ORBIFLY December 2007 - Disclaimer

ORBIFLY MET'MAP TEAM :

Programming & Development : Alexandra Zaïnal
Concept & Development : Baudouin d'Aumeries
Co-Development & Prog : Marc-Olivier Méhu
Technical & hardware support : Manuel Goepfert

Contact : metmap@orbifly.com




SOURCES & CREDITS :

   NOAA